Time;durP1;ratioP1;P1;durP2;ratioP2;P2;SDS_P1;SDS_P2;PMS_P1;PMS_P2;Temp;Humidity;BMP_temperature;BMP_pressure;BME280_temperature;BME280_humidity;BME280_pressure;Samples;Min_cycle;Max_cycle;Signal;HPM_P1;HPM_P2
2022/01/17 00:00:23;;;;;;;38.40;20.95;;;;;;;-5.79;70.38;93897.22;5109729;28;20054;-39
2022/01/17 00:02:50;;;;;;;33.10;19.65;;;;;;;-5.86;70.79;93900.16;5110455;28;20024;-40
2022/01/17 00:05:16;;;;;;;49.17;26.38;;;;;;;-6.07;71.06;93890.09;5110745;28;20054;-38
2022/01/17 00:07:42;;;;;;;56.00;29.40;;;;;;;-5.90;70.16;93894.16;5108681;28;20488;-41
2022/01/17 00:10:09;;;;;;;48.85;26.83;;;;;;;-5.95;70.40;93902.75;5089979;28;20114;-40
2022/01/17 00:12:38;;;;;;;64.03;30.42;;;;;;;-5.74;69.99;93905.47;5089938;28;20489;-39
2022/01/17 00:15:17;;;;;;;70.93;34.58;;;;;;;-5.55;68.87;93898.34;5092766;28;20027;-39
2022/01/17 00:17:47;;;;;;;74.88;36.10;;;;;;;-5.61;68.40;93902.78;5090131;28;20445;-40
2022/01/17 00:20:17;;;;;;;70.40;33.03;;;;;;;-5.48;68.01;93898.84;5089798;28;20043;-39
2022/01/17 00:22:44;;;;;;;76.88;36.78;;;;;;;-5.69;68.37;93904.19;5089954;28;20024;-40
2022/01/17 00:25:10;;;;;;;65.80;31.40;;;;;;;-6.02;68.94;93882.22;5094264;28;20032;-40
2022/01/17 00:27:35;;;;;;;61.88;32.63;;;;;;;-6.07;69.00;93876.66;5094038;28;20544;-39
2022/01/17 00:30:03;;;;;;;45.20;24.13;;;;;;;-6.23;70.84;93899.03;5093796;28;20020;-40
2022/01/17 00:32:30;;;;;;;57.20;27.70;;;;;;;-6.47;71.29;93889.78;5093101;28;20059;-40
2022/01/17 00:34:56;;;;;;;49.53;26.30;;;;;;;-6.36;71.00;93885.59;5094093;28;20165;-40
2022/01/17 00:37:22;;;;;;;57.90;25.23;;;;;;;-6.34;72.04;93891.28;5094059;28;20508;-39
2022/01/17 00:39:48;;;;;;;33.13;17.45;;;;;;;-6.55;71.74;93891.94;5094060;28;20068;-39
2022/01/17 00:42:13;;;;;;;51.72;25.80;;;;;;;-6.29;72.46;93890.75;5094015;28;20408;-39
2022/01/17 00:44:39;;;;;;;44.33;22.80;;;;;;;-6.07;70.64;93888.16;5093864;28;20031;-39
2022/01/17 00:47:05;;;;;;;41.60;22.95;;;;;;;-6.12;71.17;93882.56;5093610;28;20421;-39
2022/01/17 00:49:30;;;;;;;48.17;26.95;;;;;;;-6.09;69.89;93866.34;5093865;28;20058;-39
2022/01/17 00:51:56;;;;;;;47.45;24.70;;;;;;;-5.97;70.03;93889.00;5093335;28;20409;-40
2022/01/17 00:54:21;;;;;;;45.58;22.33;;;;;;;-6.31;71.16;93885.06;5093724;28;20024;-40
2022/01/17 00:56:46;;;;;;;47.25;23.95;;;;;;;-6.21;70.67;93875.16;5093442;28;20496;-40
2022/01/17 00:59:12;;;;;;;47.92;22.95;;;;;;;-6.36;70.44;93882.16;5093616;28;20042;-39
2022/01/17 01:01:38;;;;;;;45.20;22.20;;;;;;;-6.33;70.30;93857.13;5093344;28;20525;-39
2022/01/17 01:04:03;;;;;;;31.75;19.60;;;;;;;-6.34;69.20;93882.47;5095984;28;20085;-40
2022/01/17 01:06:30;;;;;;;38.15;22.95;;;;;;;-6.26;69.12;93886.47;5114069;28;20050;-40
2022/01/17 01:08:56;;;;;;;49.65;26.08;;;;;;;-6.29;69.23;93873.88;5113458;28;20038;-41
2022/01/17 01:11:22;;;;;;;56.22;30.27;;;;;;;-6.37;69.29;93875.28;5113442;28;20027;-40
2022/01/17 01:13:47;;;;;;;51.70;27.75;;;;;;;-6.32;69.33;93864.75;5113843;28;20027;-39
2022/01/17 01:29:20;;;;;;;26.60;15.60;;;;;;;-6.45;71.79;93847.88;5113502;28;20034;-39
2022/01/17 01:31:57;;;;;;;26.02;12.55;;;;;;;-6.76;71.51;93841.56;5098462;28;20432;-38
2022/01/17 01:34:32;;;;;;;24.58;11.93;;;;;;;-6.56;71.00;93838.66;5092666;28;20035;-39
2022/01/17 01:36:58;;;;;;;30.80;15.25;;;;;;;-6.47;71.05;93839.50;5093076;28;20034;-39
2022/01/17 01:39:24;;;;;;;26.02;15.85;;;;;;;-6.59;71.31;93831.44;5092486;28;20031;-38
2022/01/17 01:41:51;;;;;;;25.88;12.93;;;;;;;-6.50;69.88;93836.94;5092698;28;20451;-38
2022/01/17 01:44:19;;;;;;;25.70;13.05;;;;;;;-6.38;69.16;93836.91;5094288;28;20433;-39
2022/01/17 01:46:46;;;;;;;26.98;14.82;;;;;;;-6.46;68.62;93830.28;5112648;28;20028;-38
2022/01/17 01:49:12;;;;;;;23.33;12.18;;;;;;;-6.39;68.90;93832.72;5113029;28;20416;-38
2022/01/17 01:51:38;;;;;;;20.85;11.40;;;;;;;-6.53;70.02;93843.91;5112759;28;20028;-38
2022/01/17 01:54:04;;;;;;;22.95;11.95;;;;;;;-6.45;70.28;93839.81;5112969;28;20030;-38
2022/01/17 01:56:30;;;;;;;20.42;10.85;;;;;;;-6.42;70.24;93835.53;5112622;28;20026;-39
2022/01/17 01:58:56;;;;;;;25.85;12.57;;;;;;;-6.63;70.69;93836.19;5112969;28;20024;-39
2022/01/17 02:01:22;;;;;;;19.88;9.27;;;;;;;-6.52;69.29;93828.56;5099270;28;20031;-39
2022/01/17 02:03:48;;;;;;;16.90;9.63;;;;;;;-6.64;70.04;93838.09;5095306;28;20023;-38
2022/01/17 02:06:13;;;;;;;16.30;8.77;;;;;;;-6.72;70.75;93841.44;5112509;28;20485;-38
2022/01/17 02:08:39;;;;;;;29.95;16.33;;;;;;;-6.55;69.60;93822.09;5112050;28;20110;-37
2022/01/17 02:11:05;;;;;;;43.00;19.77;;;;;;;-6.73;70.09;93803.09;5112232;27;20061;-38
2022/01/17 02:13:30;;;;;;;65.93;30.38;;;;;;;-6.54;69.75;93818.22;5111957;28;20504;-39
2022/01/17 02:16:03;;;;;;;74.93;34.83;;;;;;;-6.49;70.09;93817.69;5108247;28;20489;-38
2022/01/17 02:18:30;;;;;;;74.32;37.22;;;;;;;-6.54;70.63;93826.28;5110395;28;20431;-39
2022/01/17 02:21:17;;;;;;;63.38;30.23;;;;;;;-6.65;70.16;93827.81;5111666;28;20047;-38
2022/01/17 02:23:45;;;;;;;65.30;31.52;;;;;;;-6.53;70.11;93827.81;5092087;28;20544;-40
2022/01/17 02:26:11;;;;;;;70.25;34.33;;;;;;;-6.38;69.49;93836.91;5091617;28;20028;-40
2022/01/17 02:28:37;;;;;;;64.13;32.95;;;;;;;-6.64;69.26;93830.06;5091912;28;20150;-40
2022/01/17 02:31:05;;;;;;;58.67;31.63;;;;;;;-6.63;69.68;93834.25;5091578;28;20028;-41
2022/01/17 02:33:34;;;;;;;63.28;32.13;;;;;;;-6.81;69.77;93806.41;5091818;28;20036;-38
2022/01/17 02:36:01;;;;;;;57.80;30.30;;;;;;;-6.74;69.88;93833.06;5091388;28;20144;-42
2022/01/17 02:38:27;;;;;;;54.97;27.60;;;;;;;-7.16;70.70;93833.13;5091801;28;20027;-41
2022/01/17 02:40:54;;;;;;;55.55;27.15;;;;;;;-7.02;71.25;93826.59;5091692;28;20427;-41
2022/01/17 02:43:21;;;;;;;51.83;27.23;;;;;;;-6.97;70.64;93828.72;5091410;28;20024;-40
2022/01/17 02:48:20;;;;;;;40.45;19.83;;;;;;;-6.91;69.84;93827.03;5091671;28;20032;-41
2022/01/17 02:50:46;;;;;;;41.92;18.90;;;;;;;-6.92;69.43;93828.22;5091570;28;20481;-40
2022/01/17 02:53:12;;;;;;;47.35;23.30;;;;;;;-6.98;68.95;93830.69;5098089;28;20028;-40
2022/01/17 02:55:59;;;;;;;53.22;25.45;;;;;;;-7.28;71.18;93827.72;5111595;28;20053;-41
2022/01/17 02:58:27;;;;;;;48.28;23.92;;;;;;;-7.06;70.60;93834.72;5092777;28;20036;-40
2022/01/17 03:00:56;;;;;;;54.60;27.00;;;;;;;-6.93;70.82;93826.72;5091287;28;20032;-41
2022/01/17 03:03:22;;;;;;;;;;;;;;;-7.28;71.24;93823.13;5091863;28;20035;-41
2022/01/17 03:05:48;;;;;;;46.40;22.60;;;;;;;-7.24;71.76;93817.66;5091057;28;19951;-41
2022/01/17 03:08:16;;;;;;;54.47;23.70;;;;;;;-7.11;71.83;93823.78;5090760;28;20108;-41
2022/01/17 03:10:43;;;;;;;34.08;17.92;;;;;;;-6.83;70.74;93824.88;5091212;28;20038;-40
2022/01/17 03:13:29;;;;;;;39.55;19.15;;;;;;;-6.83;70.84;93820.28;5091175;28;20028;-40
2022/01/17 03:15:57;;;;;;;33.33;18.10;;;;;;;-6.91;71.06;93813.63;5093520;28;20024;-40
2022/01/17 03:18:25;;;;;;;34.50;18.65;;;;;;;-6.96;70.94;93808.78;5090734;28;20172;-41
2022/01/17 03:20:51;;;;;;;33.42;18.70;;;;;;;-6.95;71.12;93818.31;5090716;28;20032;-40
2022/01/17 03:23:16;;;;;;;35.30;18.23;;;;;;;-6.95;70.97;93815.63;5090638;28;20020;-40
2022/01/17 03:25:42;;;;;;;29.60;17.52;;;;;;;-7.02;71.47;93815.88;5090550;28;20024;-39
2022/01/17 03:28:08;;;;;;;33.45;17.45;;;;;;;-6.82;71.04;93818.34;5090529;28;20081;-40
2022/01/17 03:30:34;;;;;;;36.95;18.13;;;;;;;-7.24;70.37;93790.81;5108416;28;20028;-40
2022/01/17 03:33:01;;;;;;;31.30;15.88;;;;;;;-7.15;70.02;93831.19;5110652;28;20030;-41
2022/01/17 03:35:27;;;;;;;40.15;17.33;;;;;;;-7.05;69.16;93809.41;5110866;28;20019;-40
2022/01/17 03:37:52;;;;;;;40.70;19.20;;;;;;;-6.93;69.30;93821.34;5110803;28;20229;-41
2022/01/17 03:40:18;;;;;;;38.50;19.67;;;;;;;-7.03;69.37;93817.03;5111090;28;20118;-39
2022/01/17 03:42:44;;;;;;;48.83;21.25;;;;;;;-7.21;70.13;93816.81;5110777;28;20020;-40
2022/01/17 03:45:10;;;;;;;56.20;25.50;;;;;;;-7.11;70.49;93808.44;5110728;28;20035;-39
2022/01/17 03:47:40;;;;;;;55.53;27.95;;;;;;;-7.00;71.06;93805.44;5110941;28;20031;-39
2022/01/17 03:50:09;;;;;;;57.75;31.75;;;;;;;-6.90;70.01;93814.34;5110543;28;20032;-39
2022/01/17 03:52:35;;;;;;;54.97;29.10;;;;;;;-6.95;69.86;93805.66;5110393;28;20488;-40
2022/01/17 03:55:00;;;;;;;69.18;32.67;;;;;;;-6.87;70.23;93814.28;5110971;28;20026;-40
2022/01/17 03:57:26;;;;;;;57.40;25.52;;;;;;;-6.90;69.35;93807.06;5110492;28;20102;-40
2022/01/17 03:59:52;;;;;;;60.65;29.50;;;;;;;-7.19;69.39;93811.75;5110473;28;20115;-40
2022/01/17 04:02:17;;;;;;;64.65;27.50;;;;;;;-7.02;69.88;93803.19;5110875;28;20023;-39
2022/01/17 04:04:43;;;;;;;59.42;29.55;;;;;;;-7.03;70.34;93807.06;5110340;28;20051;-40
2022/01/17 04:07:09;;;;;;;66.28;31.90;;;;;;;-7.06;70.70;93809.84;5110481;28;20081;-40
2022/01/17 04:09:34;;;;;;;64.68;27.42;;;;;;;-7.53;71.08;93812.31;5110463;28;20032;-39
2022/01/17 04:12:00;;;;;;;83.80;33.25;;;;;;;-7.46;70.88;93812.13;5110180;28;20062;-39
2022/01/17 04:14:25;;;;;;;138.27;52.83;;;;;;;-7.40;70.07;93810.41;5110416;28;20027;-39
2022/01/17 04:16:51;;;;;;;96.93;38.58;;;;;;;-7.37;70.60;93816.88;5090677;28;20021;-39
2022/01/17 04:19:18;;;;;;;70.13;31.27;;;;;;;-7.28;70.29;93808.94;5090958;28;20076;-40
2022/01/17 04:21:46;;;;;;;67.72;30.95;;;;;;;-7.25;70.10;93797.34;5110182;28;20036;-40
2022/01/17 04:24:12;;;;;;;95.73;40.70;;;;;;;-7.18;70.69;93810.56;5110540;28;20055;-39
2022/01/17 04:26:37;;;;;;;82.25;37.17;;;;;;;-7.51;72.14;93811.91;5110326;28;20497;-40
2022/01/17 04:29:03;;;;;;;73.75;35.33;;;;;;;-7.61;72.11;93810.25;5110378;28;20030;-39
2022/01/17 04:31:29;;;;;;;63.22;28.58;;;;;;;-7.56;72.39;93812.41;5110259;28;20565;-39
2022/01/17 04:33:55;;;;;;;62.72;33.13;;;;;;;-7.35;72.10;93827.91;5110136;28;20115;-40
2022/01/17 04:36:20;;;;;;;59.03;25.73;;;;;;;-7.51;72.54;93825.31;5110435;28;20306;-39
2022/01/17 04:38:46;;;;;;;46.92;22.45;;;;;;;-7.40;71.67;93837.25;5110476;28;20453;-38
2022/01/17 04:41:15;;;;;;;48.80;23.42;;;;;;;-7.26;72.13;93836.09;5110413;28;20568;-40
2022/01/17 04:46:15;;;;;;;37.53;17.27;;;;;;;-7.63;72.24;93836.72;5110358;28;20032;-39
2022/01/17 04:48:41;;;;;;;53.25;26.02;;;;;;;-7.26;72.13;93836.84;5110124;28;20032;-39
2022/01/17 04:51:08;;;;;;;38.80;19.00;;;;;;;-7.06;71.95;93834.00;5109932;28;20055;-39
2022/01/17 04:53:34;;;;;;;38.00;19.10;;;;;;;-7.39;73.06;93832.63;5109815;28;20035;-39
2022/01/17 04:55:59;;;;;;;53.95;25.63;;;;;;;-7.34;73.09;93830.16;5109921;28;20031;-39
2022/01/17 04:58:25;;;;;;;45.45;21.60;;;;;;;-7.66;73.45;93829.53;5109956;28;20067;-39
2022/01/17 05:00:51;;;;;;;46.20;21.25;;;;;;;-7.48;73.99;93835.16;5109921;28;20106;-40
2022/01/17 05:03:24;;;;;;;43.22;19.10;;;;;;;-7.35;72.96;93833.28;5109889;28;20059;-40
2022/01/17 05:05:50;;;;;;;28.58;16.00;;;;;;;-7.31;71.78;93831.25;5110257;28;20027;-39
2022/01/17 05:08:16;;;;;;;41.22;18.00;;;;;;;-7.26;72.37;93836.09;5109754;28;20115;-40
2022/01/17 05:10:46;;;;;;;39.75;17.85;;;;;;;-7.27;72.13;93829.22;5112741;28;20054;-40
2022/01/17 05:13:18;;;;;;;27.83;16.35;;;;;;;-7.18;70.84;93823.97;5112267;28;20470;-39
2022/01/17 05:15:49;;;;;;;44.80;22.23;;;;;;;-7.00;69.33;93811.56;5110065;28;20405;-40
2022/01/17 05:20:49;;;;;;;40.55;20.33;;;;;;;-7.15;70.46;93828.50;5113545;28;20031;-39
2022/01/17 05:23:15;;;;;;;49.63;20.75;;;;;;;-7.28;69.89;93811.63;5113686;28;20474;-39
2022/01/17 05:25:40;;;;;;;40.00;19.65;;;;;;;-7.26;70.70;93825.38;5113555;27;20488;-39
2022/01/17 05:28:06;;;;;;;39.35;20.10;;;;;;;-7.18;70.28;93815.94;5113502;28;20493;-38
2022/01/17 05:30:31;;;;;;;42.33;22.55;;;;;;;-7.15;69.77;93825.81;5113257;28;20027;-39
2022/01/17 05:33:00;;;;;;;125.97;50.75;;;;;;;-7.75;72.18;93814.06;5110957;27;20027;-39
2022/01/17 05:35:26;;;;;;;77.40;35.55;;;;;;;-7.61;72.23;93831.69;5113460;28;20437;-38
2022/01/17 05:37:51;;;;;;;77.43;36.10;;;;;;;-7.43;71.72;93813.22;5113184;28;20070;-38
2022/01/17 05:40:17;;;;;;;66.03;30.42;;;;;;;-7.58;72.25;93801.38;5113309;28;20026;-38
2022/01/17 05:42:43;;;;;;;46.42;21.35;;;;;;;-7.72;74.30;93811.28;5112975;28;20030;-39
2022/01/17 05:45:10;;;;;;;53.20;23.75;;;;;;;-7.59;74.95;93803.28;5111298;28;20031;-39
2022/01/17 05:47:36;;;;;;;62.10;28.33;;;;;;;-7.52;74.64;93796.97;5112853;28;20450;-39
2022/01/17 05:50:03;;;;;;;68.80;32.92;;;;;;;-7.53;75.46;93803.50;5113045;28;20110;-39
2022/01/17 05:52:30;;;;;;;50.45;23.75;;;;;;;-7.71;74.53;93804.75;5112893;28;20027;-39
2022/01/17 05:54:55;;;;;;;36.33;18.25;;;;;;;-7.66;76.58;93808.06;5113077;28;20027;-38
2022/01/17 05:57:21;;;;;;;34.47;17.88;;;;;;;-7.39;76.32;93814.63;5112563;28;20500;-40
2022/01/17 05:59:46;;;;;;;37.20;18.42;;;;;;;-7.37;74.84;93798.84;5112191;28;20504;-39
2022/01/17 06:02:12;;;;;;;38.40;20.88;;;;;;;-7.16;73.08;93811.66;5112084;28;20061;-39
2022/01/17 06:04:37;;;;;;;83.00;39.95;;;;;;;-7.26;71.91;93785.13;5112537;28;20028;-40
2022/01/17 06:07:04;;;;;;;92.00;42.30;;;;;;;-6.93;70.51;93807.94;5112041;28;20028;-39
2022/01/17 06:09:29;;;;;;;68.60;33.95;;;;;;;-7.36;71.51;93797.66;5108016;28;20027;-39
2022/01/17 06:11:55;;;;;;;67.80;30.73;;;;;;;-7.40;72.12;93815.03;5108294;27;20035;-40
2022/01/17 06:14:21;;;;;;;77.25;36.83;;;;;;;-7.25;72.27;93811.53;5110457;28;20031;-36
2022/01/17 06:16:47;;;;;;;91.85;45.40;;;;;;;-7.35;72.11;93809.16;5105091;28;20448;-36
2022/01/17 06:19:13;;;;;;;104.93;46.30;;;;;;;-7.13;71.89;93807.38;5090610;28;20481;-38
2022/01/17 06:21:39;;;;;;;83.57;38.10;;;;;;;-7.07;72.82;93821.75;5104547;28;20457;-36
2022/01/17 06:24:06;;;;;;;90.80;41.03;;;;;;;-6.99;71.68;93821.13;5109630;28;20057;-37
2022/01/17 06:26:33;;;;;;;89.90;38.50;;;;;;;-6.80;70.10;93824.03;5110880;28;20039;-39
2022/01/17 06:28:59;;;;;;;87.75;43.05;;;;;;;-6.96;70.83;93803.41;5111149;28;20034;-37
2022/01/17 06:31:24;;;;;;;80.93;42.22;;;;;;;-6.87;71.42;93821.56;5111097;28;20032;-37
2022/01/17 06:33:50;;;;;;;100.03;48.03;;;;;;;-6.98;71.63;93819.19;5105401;28;20470;-37
2022/01/17 06:36:15;;;;;;;62.92;30.98;;;;;;;-7.29;71.52;93832.34;5088077;28;20056;-38
2022/01/17 06:38:41;;;;;;;61.75;26.38;;;;;;;-7.16;72.14;93832.34;5098612;28;20032;-37
2022/01/17 06:41:06;;;;;;;47.70;25.05;;;;;;;-7.00;71.65;93824.25;5108342;28;20028;-36
2022/01/17 06:43:32;;;;;;;39.15;18.15;;;;;;;-6.81;71.56;93831.34;5108271;28;20028;-36
2022/01/17 06:45:58;;;;;;;59.85;25.48;;;;;;;-6.76;72.19;93819.31;5107581;28;20034;-36
2022/01/17 06:48:24;;;;;;;79.28;34.70;;;;;;;-6.51;71.72;93835.41;5108303;28;20047;-38
2022/01/17 06:50:49;;;;;;;124.55;57.10;;;;;;;-6.56;70.48;93844.75;5108060;28;20496;-38
2022/01/17 06:53:15;;;;;;;135.25;59.65;;;;;;;-6.47;69.70;93836.81;5104934;28;20031;-37
2022/01/17 06:55:41;;;;;;;130.50;62.90;;;;;;;-6.41;69.83;93829.72;5097701;28;20502;-38
2022/01/17 06:58:06;;;;;;;152.15;70.70;;;;;;;-6.42;70.80;93830.16;5091055;28;20028;-37
2022/01/17 07:00:32;;;;;;;119.45;59.83;;;;;;;-6.52;71.51;93825.88;5091440;28;20043;-37
2022/01/17 07:02:57;;;;;;;110.03;52.70;;;;;;;-6.79;72.52;93812.09;5107979;28;20447;-37
2022/01/17 07:05:23;;;;;;;128.05;62.05;;;;;;;-6.60;73.80;93816.50;5107844;28;20028;-37
2022/01/17 07:07:49;;;;;;;129.68;61.15;;;;;;;-6.65;74.13;93806.31;5107745;28;20116;-38
2022/01/17 07:10:15;;;;;;;121.43;55.90;;;;;;;-6.63;75.19;93809.34;5108012;28;20055;-37
2022/01/17 07:12:40;;;;;;;100.97;48.10;;;;;;;-6.35;74.58;93806.53;5089524;28;20556;-38
2022/01/17 07:15:07;;;;;;;105.10;49.70;;;;;;;-6.20;74.62;93798.75;5090299;28;20031;-37
2022/01/17 07:17:33;;;;;;;113.07;50.22;;;;;;;-6.08;75.15;93818.69;5086927;28;20598;-37
2022/01/17 07:19:58;;;;;;;120.00;57.53;;;;;;;-6.13;74.34;93805.81;5087339;28;20024;-37
2022/01/17 07:22:24;;;;;;;98.38;48.72;;;;;;;-5.81;74.27;93808.19;5090195;28;20027;-37
2022/01/17 07:24:49;;;;;;;97.57;49.08;;;;;;;-5.74;74.85;93829.47;5106740;28;20112;-38
2022/01/17 07:27:15;;;;;;;201.20;100.65;;;;;;;-5.34;74.56;93829.59;5104883;28;20051;-38
2022/01/17 07:29:42;;;;;;;141.25;67.40;;;;;;;-4.98;74.53;93833.28;5106715;28;20098;-39
2022/01/17 07:32:08;;;;;;;110.57;59.58;;;;;;;-4.36;73.70;93833.28;5088673;28;20424;-38
2022/01/17 07:34:34;;;;;;;105.72;54.15;;;;;;;-3.83;72.03;93829.22;5086699;28;20039;-38
2022/01/17 07:36:59;;;;;;;103.50;54.08;;;;;;;-2.65;69.80;93816.41;5087328;28;20028;-38
2022/01/17 07:39:26;;;;;;;80.05;44.10;;;;;;;-1.71;65.35;93813.09;5103242;28;20050;-38
2022/01/17 07:41:52;;;;;;;86.90;45.05;;;;;;;-1.77;64.92;93806.06;5107289;28;20039;-39
2022/01/17 07:44:19;;;;;;;114.95;58.20;;;;;;;-1.38;64.83;93810.31;5107310;28;20028;-38
2022/01/17 07:47:05;;;;;;;136.48;71.90;;;;;;;-1.53;63.54;93804.13;5093706;28;20054;-37
2022/01/17 07:49:31;;;;;;;129.55;63.70;;;;;;;-1.00;64.38;93820.41;5094516;28;20039;-38
2022/01/17 07:52:05;;;;;;;77.05;39.03;;;;;;;-0.47;61.62;93823.03;5098324;28;20499;-39
2022/01/17 07:54:35;;;;;;;90.50;44.80;;;;;;;-0.44;62.73;93833.69;5102790;28;20024;-40
2022/01/17 07:57:01;;;;;;;71.93;41.15;;;;;;;-0.32;63.02;93867.91;5087086;28;20548;-39
2022/01/17 07:59:27;;;;;;;62.30;35.15;;;;;;;-0.10;62.64;93895.41;5103317;28;20019;-40
2022/01/17 08:01:52;;;;;;;59.53;32.40;;;;;;;-0.10;63.56;93911.69;5100435;28;20049;-40
2022/01/17 08:04:18;;;;;;;42.20;24.30;;;;;;;0.03;64.61;93897.84;5106148;28;20024;-41
2022/01/17 08:06:46;;;;;;;41.50;23.98;;;;;;;1.49;61.99;93881.69;5105383;28;20111;-40
2022/01/17 08:09:13;;;;;;;27.75;14.50;;;;;;;2.89;56.05;93865.13;5103234;28;20047;-41
2022/01/17 08:11:38;;;;;;;19.98;11.77;;;;;;;3.90;52.05;93810.28;5106112;28;20027;-41
2022/01/17 08:14:04;;;;;;;32.20;18.63;;;;;;;4.77;50.10;93815.34;5100137;28;20447;-41
2022/01/17 08:16:29;;;;;;;27.27;15.73;;;;;;;6.51;45.15;93813.28;5102510;28;20708;-41
2022/01/17 08:18:55;;;;;;;28.30;19.27;;;;;;;7.70;42.23;93831.34;5105857;28;20043;-42
2022/01/17 08:21:21;;;;;;;24.88;16.23;;;;;;;8.55;39.48;93842.06;5106436;28;20023;-41
2022/01/17 08:23:47;;;;;;;26.52;16.95;;;;;;;8.78;38.37;93864.44;5106736;28;20125;-41
2022/01/17 08:26:12;;;;;;;31.88;18.38;;;;;;;8.23;40.27;93896.31;5104755;28;20036;-41
2022/01/17 08:28:38;;;;;;;28.35;19.40;;;;;;;9.69;37.44;93925.09;5106284;28;20039;-40
2022/01/17 08:31:04;;;;;;;33.42;18.77;;;;;;;9.79;37.19;93937.19;5106295;28;20036;-40
2022/01/17 08:33:29;;;;;;;23.80;15.10;;;;;;;8.67;38.00;93939.69;5107289;28;20330;-40
2022/01/17 08:35:54;;;;;;;29.48;16.55;;;;;;;8.88;38.28;93935.09;5107555;28;20032;-40
2022/01/17 08:38:20;;;;;;;30.45;16.55;;;;;;;8.66;37.91;93907.94;5108150;28;20598;-40
2022/01/17 08:40:46;;;;;;;38.05;20.65;;;;;;;8.40;38.49;93888.59;5107381;28;20027;-40
2022/01/17 08:43:12;;;;;;;46.28;25.30;;;;;;;8.68;38.75;93904.66;5108500;28;20059;-39
2022/01/17 08:45:37;;;;;;;33.08;18.92;;;;;;;9.26;38.58;93880.59;5111160;28;20063;-40
2022/01/17 08:48:04;;;;;;;25.38;14.73;;;;;;;10.47;36.32;93865.50;5112547;28;20473;-41
2022/01/17 08:50:30;;;;;;;25.38;15.75;;;;;;;11.23;34.37;93853.03;5112609;28;20023;-42
2022/01/17 08:52:56;;;;;;;25.20;15.45;;;;;;;11.69;32.45;93805.00;5108942;28;20145;-41
2022/01/17 08:55:22;;;;;;;19.98;14.65;;;;;;;12.10;31.62;93801.25;5112078;28;20024;-41
2022/01/17 08:57:48;;;;;;;27.80;16.58;;;;;;;12.35;31.67;93820.84;5112202;28;20485;-41
2022/01/17 09:13:28;;;;;;;15.77;11.70;;;;;;;15.46;26.61;93749.50;5125761;27;20622;-42
2022/01/17 09:15:54;;;;;;;19.65;11.75;;;;;;;14.80;27.40;93730.88;5126905;27;20106;-42
2022/01/17 09:18:20;;;;;;;15.35;11.07;;;;;;;15.11;26.97;93738.38;5126439;27;20024;-42
2022/01/17 09:20:47;;;;;;;16.42;9.15;;;;;;;13.99;27.30;93720.53;5126436;27;20015;-42
2022/01/17 09:23:13;;;;;;;29.25;10.73;;;;;;;14.32;27.59;93697.75;5126485;27;20032;-41
2022/01/17 09:25:39;;;;;;;14.27;9.88;;;;;;;14.18;28.75;93690.22;5125325;27;20546;-41
2022/01/17 09:28:05;;;;;;;13.90;9.85;;;;;;;13.37;28.50;93699.94;5125234;27;20384;-40
2022/01/17 09:30:31;;;;;;;22.42;9.55;;;;;;;12.58;30.04;93699.75;5124894;28;20037;-40
2022/01/17 09:32:57;;;;;;;35.30;10.10;;;;;;;12.92;29.39;93688.97;5126502;27;20049;-41
2022/01/17 09:35:22;;;;;;;13.38;9.40;;;;;;;12.56;30.19;93707.91;5125359;27;20434;-41
2022/01/17 09:37:50;;;;;;;21.65;8.60;;;;;;;13.13;30.07;93703.34;5126136;27;20020;-40
2022/01/17 09:40:17;;;;;;;21.00;8.82;;;;;;;14.28;28.22;93704.97;5126439;27;20015;-40
2022/01/17 09:42:43;;;;;;;14.35;9.68;;;;;;;13.36;30.25;93706.78;5126439;27;20035;-41
2022/01/17 09:45:12;;;;;;;15.93;8.07;;;;;;;13.06;29.71;93709.66;5125059;27;20027;-42
2022/01/17 09:47:38;;;;;;;21.85;8.95;;;;;;;13.71;29.03;93699.41;5124127;27;20023;-41
2022/01/17 09:50:11;;;;;;;11.25;9.05;;;;;;;14.47;28.23;93701.72;5123281;27;20496;-41
2022/01/17 09:52:41;;;;;;;15.35;8.95;;;;;;;14.36;27.90;93700.09;5123889;28;20023;-40
2022/01/17 09:55:21;;;;;;;16.50;8.30;;;;;;;14.14;27.88;93706.56;5124825;28;20030;-41
2022/01/17 09:57:54;;;;;;;11.65;8.18;;;;;;;13.51;30.14;93709.47;5126351;27;20027;-40
2022/01/17 10:00:26;;;;;;;11.05;7.45;;;;;;;13.84;29.35;93704.69;5126361;27;20023;-41
2022/01/17 10:02:59;;;;;;;14.10;8.35;;;;;;;13.91;30.05;93706.69;5126242;27;20020;-41
2022/01/17 10:05:26;;;;;;;14.10;7.68;;;;;;;13.47;30.25;93708.41;5126656;27;20034;-41
2022/01/17 10:07:53;;;;;;;14.43;7.55;;;;;;;13.53;30.41;93718.00;5107889;28;20084;-42
2022/01/17 10:10:50;;;;;;;12.40;7.90;;;;;;;13.22;30.79;93705.53;5125344;27;20026;-40
2022/01/17 10:13:38;;;;;;;10.02;7.18;;;;;;;13.18;31.53;93710.00;5116327;27;20044;-42
2022/01/17 10:16:11;;;;;;;21.02;6.68;;;;;;;13.17;30.96;93709.25;5112296;28;20530;-40
2022/01/17 10:18:41;;;;;;;22.63;6.72;;;;;;;12.51;32.11;93706.03;5111559;28;20397;-41
2022/01/17 10:21:42;;;;;;;11.40;6.25;;;;;;;12.14;32.96;93699.97;5112298;28;20035;-41
2022/01/17 10:24:26;;;;;;;12.93;7.35;;;;;;;12.70;32.60;93706.38;5081083;28;20055;-42
2022/01/17 10:35:24;;;;;;;11.35;7.50;;;;;;;12.86;31.99;93680.84;5112575;28;20096;-42
2022/01/17 10:37:59;;;;;;;10.80;8.30;;;;;;;12.48;32.67;93682.22;5111996;27;20569;-40
2022/01/17 10:40:31;;;;;;;12.95;7.45;;;;;;;12.04;33.86;93685.19;5112023;28;20015;-41
2022/01/17 10:42:58;;;;;;;15.18;8.23;;;;;;;11.87;33.52;93662.84;5112252;28;20034;-41
2022/01/17 10:45:33;;;;;;;9.05;7.45;;;;;;;11.85;33.93;93673.00;5112301;28;20032;-41
2022/01/17 10:48:00;;;;;;;16.17;7.70;;;;;;;11.65;34.15;93673.88;5110695;28;20563;-41
2022/01/17 10:50:52;;;;;;;33.75;9.02;;;;;;;11.73;33.85;93678.16;5104057;28;20019;-40
2022/01/17 10:53:18;;;;;;;8.10;6.15;;;;;;;11.78;33.88;93673.72;5108198;28;20034;-42
2022/01/17 10:55:49;;;;;;;8.02;5.60;;;;;;;12.16;33.49;93672.47;5111509;28;20407;-42
2022/01/17 10:58:24;;;;;;;6.85;5.32;;;;;;;12.26;33.46;93680.22;5111115;28;20720;-42
2022/01/17 11:01:01;;;;;;;8.40;5.32;;;;;;;12.34;33.04;93689.25;5111533;28;20023;-43
2022/01/17 11:03:29;;;;;;;8.70;5.15;;;;;;;12.26;33.45;93672.63;5110491;28;20061;-41
2022/01/17 11:05:57;;;;;;;7.22;5.78;;;;;;;11.83;32.98;93662.47;5110978;28;20141;-41
2022/01/17 11:08:25;;;;;;;7.38;5.45;;;;;;;10.66;35.12;93667.97;5110677;28;20102;-42
2022/01/17 11:10:55;;;;;;;7.45;5.43;;;;;;;10.31;36.79;93667.94;5107769;28;20533;-41
2022/01/17 11:13:23;;;;;;;8.48;5.63;;;;;;;10.29;36.01;93679.50;5110955;28;20451;-41
2022/01/17 11:15:54;;;;;;;9.40;6.38;;;;;;;9.27;37.93;93677.47;5111163;28;20031;-41
2022/01/17 11:18:23;;;;;;;8.25;5.57;;;;;;;8.50;40.38;93674.28;5111587;28;20699;-41
2022/01/17 11:21:13;;;;;;;9.90;5.75;;;;;;;7.87;41.91;93677.91;5110280;28;20031;-40
2022/01/17 11:23:43;;;;;;;8.65;6.03;;;;;;;7.49;43.54;93669.78;5110770;28;20115;-40
2022/01/17 11:26:09;;;;;;;12.63;6.57;;;;;;;7.33;43.59;93665.28;5110741;28;20544;-41
2022/01/17 11:28:36;;;;;;;19.25;7.00;;;;;;;7.46;43.98;93653.59;5111126;28;20054;-41
2022/01/17 11:31:06;;;;;;;15.35;6.68;;;;;;;7.37;44.43;93654.00;5111116;28;20028;-42
2022/01/17 11:33:32;;;;;;;9.27;5.65;;;;;;;7.23;44.37;93661.47;5110928;28;20030;-41
2022/01/17 11:35:57;;;;;;;10.05;6.50;;;;;;;7.08;44.66;93655.66;5110703;28;20023;-41
2022/01/17 11:38:34;;;;;;;11.95;6.35;;;;;;;6.75;45.13;93647.91;5110949;28;20035;-40
2022/01/17 11:41:01;;;;;;;11.50;6.72;;;;;;;6.47;46.33;93663.97;5110464;28;20031;-41
2022/01/17 11:43:35;;;;;;;10.40;6.72;;;;;;;6.13;46.95;93665.63;5111304;28;20469;-39
2022/01/17 11:46:19;;;;;;;9.38;6.40;;;;;;;5.84;47.57;93673.38;5111053;28;20020;-40
2022/01/17 11:49:06;;;;;;;14.95;7.68;;;;;;;5.48;48.28;93673.91;5109256;28;20023;-41
2022/01/17 11:51:47;;;;;;;9.10;6.28;;;;;;;5.09;49.39;93674.19;5110031;28;20019;-39
2022/01/17 11:54:16;;;;;;;14.75;5.95;;;;;;;4.96;49.76;93676.78;5090570;28;20034;-41
2022/01/17 11:56:44;;;;;;;9.15;6.13;;;;;;;4.89;50.44;93661.63;5090374;28;20462;-40
2022/01/17 11:59:34;;;;;;;7.50;5.53;;;;;;;4.88;50.81;93621.09;5089930;28;20390;-40
2022/01/17 12:02:24;;;;;;;10.63;6.25;;;;;;;4.80;51.27;93631.09;5091645;28;20500;-40
2022/01/17 12:05:07;;;;;;;16.00;6.68;;;;;;;5.38;49.62;93627.69;5110357;28;20046;-41